createdAt,value
2023-03-01T00:00:55.842Z,0.59
2023-03-01T00:06:44.059Z,0.42
2023-03-01T00:09:21.795Z,0.38
2023-03-01T00:12:25.408Z,0.27
2023-03-01T00:19:00.071Z,0.13
2023-03-01T00:25:56.632Z,-0.05
2023-03-01T00:28:57.373Z,-0.08
2023-03-01T00:42:40.476Z,-0.13
2023-03-01T00:45:32.062Z,-0.11
2023-03-01T00:48:46.760Z,-0.07
2023-03-01T00:52:08.518Z,-0.08
2023-03-01T00:59:24.926Z,-0.04
2023-03-01T01:03:01.179Z,0.03
2023-03-01T01:05:55.806Z,0.07
2023-03-01T01:09:15.677Z,0.07
2023-03-01T01:12:45.092Z,0.04
2023-03-01T01:27:37.786Z,-0.11
2023-03-01T01:39:23.268Z,-0.12
2023-03-01T01:45:39.128Z,-0.13
2023-03-01T01:53:40.935Z,-0.24
2023-03-01T01:56:47.367Z,-0.29
2023-03-01T02:03:00.552Z,-0.32
2023-03-01T02:13:17.322Z,-0.45
2023-03-01T02:16:55.426Z,-0.43
2023-03-01T02:24:40.599Z,-0.40
2023-03-01T02:32:33.759Z,-0.40
2023-03-01T02:36:05.186Z,-0.45
2023-03-01T02:43:55.203Z,-0.53
2023-03-01T02:50:45.315Z,-0.48
2023-03-01T02:54:36.681Z,-0.52
2023-03-01T02:57:25.659Z,-0.57
2023-03-01T03:00:22.206Z,-0.61
2023-03-01T03:03:42.207Z,-0.61
2023-03-01T03:07:00.151Z,-0.57
2023-03-01T03:10:33.791Z,-0.52
2023-03-01T03:13:54.494Z,-0.46
2023-03-01T03:20:11.227Z,-0.46
2023-03-01T03:23:06.340Z,-0.57
2023-03-01T03:30:08.340Z,-0.71
2023-03-01T03:40:02.362Z,-0.93
2023-03-01T03:47:35.287Z,-1.10
2023-03-01T03:50:54.072Z,-1.10
2023-03-01T03:57:07.249Z,-1.10
2023-03-01T04:04:12.141Z,-1.08
2023-03-01T04:15:04.705Z,-1.15
2023-03-01T04:18:51.334Z,-1.14
2023-03-01T04:22:27.634Z,-1.14
2023-03-01T04:25:30.165Z,-1.20
2023-03-01T04:32:31.530Z,-1.27
2023-03-01T04:36:07.578Z,-1.31
2023-03-01T04:39:26.649Z,-1.37
2023-03-01T04:46:31.113Z,-1.54
2023-03-01T04:51:06.290Z,-1.57
2023-03-01T04:54:29.365Z,-1.58
2023-03-01T04:58:07.412Z,-1.60
2023-03-01T05:02:08.716Z,-1.65
2023-03-01T05:05:11.969Z,-1.69
2023-03-01T05:08:48.663Z,-1.69
2023-03-01T05:19:31.776Z,-1.71
2023-03-01T05:25:48.641Z,-1.68
2023-03-01T05:38:19.834Z,-1.62
2023-03-01T05:41:26.891Z,-1.62
2023-03-01T05:49:02.957Z,-1.72
2023-03-01T05:52:35.265Z,-1.75
2023-03-01T05:56:12.450Z,-1.79
2023-03-01T05:59:15.164Z,-1.78
2023-03-01T06:16:25.989Z,-1.27
2023-03-01T06:23:14.081Z,-0.90
2023-03-01T06:29:17.793Z,-0.44
2023-03-01T06:32:03.062Z,0.08
2023-03-01T06:34:44.855Z,0.73
2023-03-01T06:37:24.930Z,1.49
2023-03-01T06:40:45.737Z,2.32
2023-03-01T06:43:27.313Z,3.11
2023-03-01T06:46:07.347Z,3.74
2023-03-01T06:48:59.288Z,4.18
2023-03-01T06:58:27.005Z,5.48
2023-03-01T07:01:40.058Z,6.05
2023-03-01T07:08:03.943Z,7.35
2023-03-01T07:11:16.459Z,8.05
2023-03-01T07:14:07.568Z,8.72
2023-03-01T07:17:25.407Z,9.37
2023-03-01T07:20:04.847Z,10.05
2023-03-01T07:23:07.230Z,10.57
2023-03-01T07:26:04.334Z,11.15
2023-03-01T07:28:57.670Z,11.63
2023-03-01T07:32:13.964Z,11.98
2023-03-01T07:34:50.310Z,12.22
2023-03-01T07:38:04.702Z,12.43
2023-03-01T07:47:59.208Z,13.54
2023-03-01T07:50:47.959Z,14.07
2023-03-01T07:54:03.013Z,14.31
2023-03-01T07:56:37.157Z,14.58
2023-03-01T07:59:09.001Z,14.60
2023-03-01T08:01:54.835Z,14.80
2023-03-01T08:04:37.610Z,15.02
2023-03-01T08:07:21.286Z,15.07
2023-03-01T08:10:33.768Z,15.25
2023-03-01T08:13:26.569Z,15.61
2023-03-01T08:20:09.964Z,15.83
2023-03-01T08:22:58.610Z,16.19
2023-03-01T08:25:38.270Z,16.80
2023-03-01T08:28:18.459Z,17.07
2023-03-01T08:31:36.733Z,17.07
2023-03-01T08:41:30.700Z,17.92
2023-03-01T08:44:09.248Z,17.96
2023-03-01T08:48:03.528Z,18.00
2023-03-01T08:51:13.973Z,18.22
2023-03-01T08:55:19.282Z,18.51
2023-03-01T09:05:39.359Z,18.85
2023-03-01T09:08:49.170Z,19.08
2023-03-01T09:18:04.437Z,19.17
2023-03-01T09:20:54.502Z,19.07
2023-03-01T09:23:31.294Z,18.93
2023-03-01T09:27:08.963Z,18.62
2023-03-01T09:38:02.819Z,19.17
2023-03-01T09:44:24.489Z,18.77
2023-03-01T09:51:03.800Z,18.31
2023-03-01T09:54:02.810Z,18.11
2023-03-01T09:57:50.760Z,18.11
2023-03-01T10:01:18.728Z,18.15
2023-03-01T10:05:03.753Z,18.11
2023-03-01T10:08:35.352Z,18.13
2023-03-01T10:12:01.039Z,18.29
2023-03-01T10:19:13.457Z,18.29
2023-03-01T10:22:04.121Z,17.78
2023-03-01T10:24:46.990Z,17.78
2023-03-01T10:28:30.123Z,17.69
2023-03-01T10:31:43.770Z,17.21
2023-03-01T10:34:59.045Z,16.59
2023-03-01T10:41:51.416Z,15.98
2023-03-01T10:45:40.983Z,15.49
2023-03-01T10:48:31.599Z,15.03
2023-03-01T10:58:37.192Z,13.89
2023-03-01T11:01:56.004Z,13.57
2023-03-01T11:05:23.506Z,13.24
2023-03-01T11:08:35.117Z,12.96
2023-03-01T11:11:50.892Z,12.83
2023-03-01T11:15:05.069Z,12.95
2023-03-01T11:17:55.830Z,13.06
2023-03-01T11:20:42.484Z,12.95
2023-03-01T11:23:25.608Z,12.60
2023-03-01T11:26:14.276Z,12.25
2023-03-01T11:28:52.766Z,11.91
2023-03-01T11:31:29.599Z,11.65
2023-03-01T11:34:19.731Z,11.28
2023-03-01T11:37:14.327Z,11.04
2023-03-01T11:40:17.609Z,10.83
2023-03-01T11:43:16.007Z,10.67
2023-03-01T11:46:50.379Z,10.41
2023-03-01T11:50:06.191Z,10.03
2023-03-01T11:53:20.587Z,9.73
2023-03-01T11:56:37.300Z,9.50
2023-03-01T11:59:31.745Z,9.35
2023-03-01T12:02:53.800Z,9.27
2023-03-01T12:06:07.025Z,9.12
2023-03-01T12:09:24.140Z,9.02
2023-03-01T12:13:02.783Z,9.01
2023-03-01T12:16:39.229Z,8.98
2023-03-01T12:19:32.336Z,8.86
2023-03-01T12:23:19.613Z,8.77
2023-03-01T12:27:33.930Z,8.65
2023-03-01T12:38:46.488Z,8.35
2023-03-01T12:42:20.993Z,8.31
2023-03-01T12:58:15.788Z,8.53
2023-03-01T13:01:28.148Z,8.49
2023-03-01T13:08:29.222Z,8.54
2023-03-01T13:11:31.572Z,8.59
2023-03-01T13:18:50.683Z,8.64
2023-03-01T13:25:42.590Z,8.63
2023-03-01T13:29:09.086Z,8.65
2023-03-01T13:31:55.574Z,8.69
2023-03-01T13:35:42.296Z,8.69
2023-03-01T13:39:30.487Z,8.62
2023-03-01T13:43:04.166Z,8.60
2023-03-01T13:46:56.282Z,8.57
2023-03-01T13:50:02.110Z,8.55
2023-03-01T13:53:09.647Z,8.47
2023-03-01T13:56:03.082Z,8.47
2023-03-01T13:59:03.343Z,8.47
2023-03-01T14:02:26.947Z,8.48
2023-03-01T14:05:21.954Z,8.49
2023-03-01T14:08:02.174Z,8.49
2023-03-01T14:11:32.274Z,8.47
2023-03-01T14:15:07.122Z,8.43
2023-03-01T14:18:10.504Z,8.44
2023-03-01T14:21:24.949Z,8.40
2023-03-01T14:24:06.318Z,8.39
2023-03-01T14:26:52.079Z,8.38
2023-03-01T14:29:52.353Z,8.37
2023-03-01T14:36:10.354Z,8.46
2023-03-01T14:42:23.674Z,8.46
2023-03-01T14:49:36.758Z,8.47
2023-03-01T14:53:16.318Z,8.46
2023-03-01T14:56:08.330Z,8.46
2023-03-01T14:59:00.957Z,8.46
2023-03-01T15:02:14.584Z,8.47
2023-03-01T15:08:33.480Z,8.41
2023-03-01T15:11:49.171Z,8.35
2023-03-01T15:19:07.844Z,8.33
2023-03-01T15:21:39.499Z,8.32
2023-03-01T15:24:20.637Z,8.32
2023-03-01T15:26:56.167Z,8.33
2023-03-01T15:29:31.120Z,8.30
2023-03-01T15:32:32.071Z,8.22
2023-03-01T15:35:01.904Z,8.21
2023-03-01T15:37:49.530Z,8.18
2023-03-01T15:40:32.169Z,8.14
2023-03-01T15:43:05.522Z,8.12
2023-03-01T15:45:39.523Z,8.09
2023-03-01T15:48:21.052Z,8.06
2023-03-01T15:50:56.765Z,8.00
2023-03-01T15:53:23.633Z,7.95
2023-03-01T15:55:51.321Z,7.91
2023-03-01T15:58:24.944Z,7.87
2023-03-01T16:01:01.914Z,7.86
2023-03-01T16:03:31.333Z,7.81
2023-03-01T16:05:58.312Z,7.77
2023-03-01T16:08:25.220Z,7.74
2023-03-01T16:10:52.529Z,7.69
2023-03-01T16:13:20.277Z,7.65
2023-03-01T16:15:47.259Z,7.61
2023-03-01T16:18:14.132Z,7.56
2023-03-01T16:20:41.320Z,7.51
2023-03-01T16:23:09.766Z,7.46
2023-03-01T16:25:37.119Z,7.42
2023-03-01T16:28:09.687Z,7.36
2023-03-01T16:30:38.707Z,7.29
2023-03-01T16:33:23.029Z,7.23
2023-03-01T16:35:52.750Z,7.16
2023-03-01T16:38:19.661Z,7.10
2023-03-01T16:40:50.573Z,7.03
2023-03-01T16:43:17.488Z,6.96
2023-03-01T16:45:45.920Z,6.93
2023-03-01T16:48:13.371Z,6.88
2023-03-01T16:50:42.125Z,6.80
2023-03-01T16:53:09.155Z,6.73
2023-03-01T16:55:36.130Z,6.69
2023-03-01T16:58:03.587Z,6.67
2023-03-01T17:00:30.545Z,6.63
2023-03-01T17:02:57.520Z,6.57
2023-03-01T17:05:25.607Z,6.51
2023-03-01T17:07:52.594Z,6.46
2023-03-01T17:10:19.589Z,6.38
2023-03-01T17:12:50.736Z,6.34
2023-03-01T17:15:17.940Z,6.30
2023-03-01T17:17:44.965Z,6.26
2023-03-01T17:20:12.433Z,6.24
2023-03-01T17:22:39.344Z,6.21
2023-03-01T17:25:10.272Z,6.21
2023-03-01T17:27:38.988Z,6.21
2023-03-01T17:30:11.735Z,6.18
2023-03-01T17:32:39.259Z,6.13
2023-03-01T17:35:08.023Z,6.09
2023-03-01T17:37:37.000Z,6.06
2023-03-01T17:40:04.533Z,6.06
2023-03-01T17:42:31.487Z,6.07
2023-03-01T17:44:58.477Z,6.05
2023-03-01T17:47:25.452Z,6.03
2023-03-01T17:49:52.362Z,6.02
2023-03-01T17:52:23.718Z,5.97
2023-03-01T17:54:51.426Z,5.94
2023-03-01T17:57:18.561Z,5.89
2023-03-01T17:59:45.499Z,5.85
2023-03-01T18:02:15.554Z,5.79
2023-03-01T18:04:42.456Z,5.74
2023-03-01T18:07:09.398Z,5.71
2023-03-01T18:09:36.323Z,5.66
2023-03-01T18:12:03.254Z,5.62
2023-03-01T18:14:33.811Z,5.59
2023-03-01T18:17:06.639Z,5.55
2023-03-01T18:19:34.168Z,5.51
2023-03-01T18:22:01.075Z,5.48
2023-03-01T18:24:28.013Z,5.45
2023-03-01T18:26:54.897Z,5.40
2023-03-01T18:29:21.837Z,5.35
2023-03-01T18:31:49.034Z,5.28
2023-03-01T18:34:16.147Z,5.23
2023-03-01T18:36:47.836Z,5.20
2023-03-01T18:39:20.479Z,5.15
2023-03-01T18:41:47.441Z,5.11
2023-03-01T18:44:14.405Z,5.08
2023-03-01T18:46:41.456Z,5.06
2023-03-01T18:49:09.227Z,5.05
2023-03-01T18:51:36.238Z,5.07
2023-03-01T18:54:03.388Z,5.11
2023-03-01T18:56:32.459Z,5.10
2023-03-01T18:59:00.647Z,5.14
2023-03-01T19:01:30.840Z,5.13
2023-03-01T19:03:58.719Z,5.11
2023-03-01T19:06:31.745Z,5.06
2023-03-01T19:08:59.173Z,5.01
2023-03-01T19:11:31.093Z,4.96
2023-03-01T19:13:59.200Z,4.91
2023-03-01T19:16:30.227Z,4.83
2023-03-01T19:19:00.331Z,4.79
2023-03-01T19:21:30.467Z,4.78
2023-03-01T19:23:59.124Z,4.78
2023-03-01T19:26:28.092Z,4.79
2023-03-01T19:28:56.411Z,4.77
2023-03-01T19:31:26.786Z,4.74
2023-03-01T19:34:09.939Z,4.67
2023-03-01T19:36:41.717Z,4.58
2023-03-01T19:39:11.312Z,4.53
2023-03-01T19:41:38.240Z,4.52
2023-03-01T19:44:05.973Z,4.50
2023-03-01T19:46:34.158Z,4.48
2023-03-01T19:49:03.347Z,4.45
2023-03-01T19:51:33.315Z,4.41
2023-03-01T19:54:00.277Z,4.37
2023-03-01T19:56:27.340Z,4.34
2023-03-01T19:59:00.203Z,4.31
2023-03-01T20:01:29.748Z,4.28
2023-03-01T20:03:56.946Z,4.24
2023-03-01T20:06:25.748Z,4.18
2023-03-01T20:08:52.797Z,4.14
2023-03-01T20:11:20.497Z,4.09
2023-03-01T20:13:47.617Z,4.04
2023-03-01T20:16:20.627Z,3.98
2023-03-01T20:18:47.721Z,3.90
2023-03-01T20:21:23.923Z,3.84
2023-03-01T20:23:51.934Z,3.77
2023-03-01T20:26:20.361Z,3.72
2023-03-01T20:28:53.827Z,3.66
2023-03-01T20:31:23.982Z,3.62
2023-03-01T20:33:50.897Z,3.61
2023-03-01T20:36:17.776Z,3.63
2023-03-01T20:38:44.688Z,3.64
2023-03-01T20:41:13.568Z,3.63
2023-03-01T20:43:42.415Z,3.61
2023-03-01T20:46:13.488Z,3.59
2023-03-01T20:48:43.102Z,3.55
2023-03-01T20:51:12.848Z,3.54
2023-03-01T20:53:40.616Z,3.53
2023-03-01T20:56:14.555Z,3.50
2023-03-01T20:58:42.399Z,3.48
2023-03-01T21:01:13.434Z,3.46
2023-03-01T21:03:40.431Z,3.44
2023-03-01T21:06:07.360Z,3.43
2023-03-01T21:08:36.263Z,3.42
2023-03-01T21:11:06.258Z,3.39
2023-03-01T21:13:34.701Z,3.34
2023-03-01T21:16:07.819Z,3.30
2023-03-01T21:18:36.897Z,3.26
2023-03-01T21:21:20.273Z,3.21
2023-03-01T21:23:47.772Z,3.18
2023-03-01T21:26:21.626Z,3.17
2023-03-01T21:28:54.377Z,3.15
2023-03-01T21:31:25.035Z,3.14
2023-03-01T21:33:56.099Z,3.13
2023-03-01T21:36:25.856Z,3.13
2023-03-01T21:38:53.390Z,3.15
2023-03-01T21:41:27.048Z,3.17
2023-03-01T21:43:57.423Z,3.16
2023-03-01T21:46:26.185Z,3.16
2023-03-01T21:48:54.851Z,3.16
2023-03-01T21:51:26.163Z,3.16
2023-03-01T21:53:55.675Z,3.14
2023-03-01T21:56:26.828Z,3.12
2023-03-01T21:58:54.439Z,3.13
2023-03-01T22:01:26.042Z,3.12
2023-03-01T22:03:53.978Z,3.14
2023-03-01T22:06:29.509Z,3.16
2023-03-01T22:09:05.812Z,3.19
2023-03-01T22:11:35.745Z,3.19
2023-03-01T22:14:04.646Z,3.18
2023-03-01T22:16:34.716Z,3.16
2023-03-01T22:19:02.997Z,3.14
2023-03-01T22:21:30.039Z,3.13
2023-03-01T22:23:57.506Z,3.10
2023-03-01T22:26:35.855Z,3.06
2023-03-01T22:29:08.246Z,3.01
2023-03-01T22:31:35.506Z,2.96
2023-03-01T22:34:03.689Z,2.92
2023-03-01T22:36:31.017Z,2.88
2023-03-01T22:39:02.064Z,2.84
2023-03-01T22:41:44.974Z,2.79
2023-03-01T22:44:14.255Z,2.79
2023-03-01T22:46:42.416Z,2.78
2023-03-01T22:49:10.484Z,2.76
2023-03-01T22:51:40.854Z,2.76
2023-03-01T22:54:09.462Z,2.75
2023-03-01T22:56:38.372Z,2.74
2023-03-01T22:59:09.577Z,2.73
2023-03-01T23:01:38.988Z,2.74
2023-03-01T23:04:06.525Z,2.77
2023-03-01T23:06:34.504Z,2.77
2023-03-01T23:09:04.475Z,2.76
2023-03-01T23:11:31.820Z,2.74
2023-03-01T23:13:59.943Z,2.74
2023-03-01T23:16:27.072Z,2.75
2023-03-01T23:19:00.820Z,2.76
2023-03-01T23:21:28.097Z,2.78
2023-03-01T23:23:56.195Z,2.79
2023-03-01T23:26:26.948Z,2.80
2023-03-01T23:28:55.170Z,2.82
2023-03-01T23:31:22.194Z,2.81
2023-03-01T23:33:49.609Z,2.79
2023-03-01T23:36:29.129Z,2.79
2023-03-01T23:39:05.820Z,2.80
2023-03-01T23:41:34.622Z,2.79
2023-03-01T23:44:04.097Z,2.78
2023-03-01T23:46:35.701Z,2.75
2023-03-01T23:49:03.307Z,2.73
2023-03-01T23:51:30.247Z,2.69
2023-03-01T23:54:00.999Z,2.67
2023-03-01T23:56:33.689Z,2.64
2023-03-01T23:59:05.320Z,2.61
